Time;durP1;ratioP1;P1;durP2;ratioP2;P2;SDS_P1;SDS_P2;PMS_P1;PMS_P2;Temp;Humidity;BMP_temperature;BMP_pressure;BME280_temperature;BME280_humidity;BME280_pressure;Samples;Min_cycle;Max_cycle;Signal;HPM_P1;HPM_P2
2022/06/02 00:00:06;;;;;;;5.30;3.95;;;;;;;7.86;100.00;101125.44;689352;28;1194;-43
2022/06/02 00:00:46;;;;;;;5.90;4.07;;;;;;;7.95;100.00;101122.13;689992;28;984;-44
2022/06/02 00:01:29;;;;;;;6.30;4.15;;;;;;;7.97;100.00;101125.59;688842;28;1441;-44
2022/06/02 00:02:00;;;;;;;10.02;4.47;;;;;;;7.94;100.00;101121.22;689085;28;4774;-43
2022/06/02 00:02:32;;;;;;;6.35;4.38;;;;;;;7.91;100.00;101126.41;687500;28;1425;-43
2022/06/02 00:03:17;;;;;;;7.38;4.75;;;;;;;7.90;100.00;101124.66;688032;28;1177;-45
2022/06/02 00:03:56;;;;;;;5.57;4.40;;;;;;;7.89;100.00;101125.53;688238;28;1612;-43
2022/06/02 00:04:34;;;;;;;5.82;4.25;;;;;;;7.92;100.00;101122.94;688118;28;1258;-44
2022/06/02 00:05:20;;;;;;;5.70;4.18;;;;;;;7.89;100.00;101130.72;687812;28;4925;-43
2022/06/02 00:06:05;;;;;;;6.63;4.32;;;;;;;7.91;100.00;101136.81;688847;28;1489;-43
2022/06/02 00:06:25;;;;;;;5.53;4.00;;;;;;;7.96;100.00;101129.94;689169;28;1250;-43
2022/06/02 00:07:03;;;;;;;5.25;3.80;;;;;;;7.95;100.00;101130.78;688490;28;1142;-43
2022/06/02 00:07:47;;;;;;;6.97;4.10;;;;;;;7.93;100.00;101129.03;689369;28;1262;-44
2022/06/02 00:08:42;;;;;;;5.95;4.00;;;;;;;7.94;100.00;101135.97;690070;28;5005;-44
2022/06/02 00:09:32;;;;;;;6.18;4.30;;;;;;;7.90;100.00;101129.00;687792;28;1262;-43
2022/06/02 00:10:23;;;;;;;5.63;4.18;;;;;;;7.95;100.00;101137.75;677691;29;1296;-43
2022/06/02 00:11:14;;;;;;;6.90;4.10;;;;;;;7.95;100.00;101138.59;685994;28;4378;-43
2022/06/02 00:12:00;;;;;;;5.72;3.80;;;;;;;7.95;100.00;101133.41;686510;28;1465;-43
2022/06/02 00:12:36;;;;;;;5.50;4.07;;;;;;;7.89;100.00;101135.94;686955;28;1588;-43
2022/06/02 00:13:12;;;;;;;5.85;4.18;;;;;;;7.92;100.00;101135.06;685316;28;1318;-45
2022/06/02 00:13:48;;;;;;;5.97;4.07;;;;;;;7.87;100.00;101139.38;683926;28;4443;-43
2022/06/02 00:14:19;;;;;;;5.90;4.20;;;;;;;7.79;100.00;101140.09;685836;28;1442;-43
2022/06/02 00:15:17;;;;;;;5.63;3.95;;;;;;;7.81;100.00;101138.41;687152;28;1556;-43
2022/06/02 00:15:42;;;;;;;6.30;4.57;;;;;;;7.77;100.00;101134.03;689603;28;1449;-43
2022/06/02 00:16:11;;;;;;;5.38;4.00;;;;;;;7.75;100.00;101146.13;689987;28;1338;-43
2022/06/02 00:16:49;;;;;;;5.43;4.13;;;;;;;7.78;100.00;101135.78;687595;28;4382;-44
2022/06/02 00:17:22;;;;;;;5.85;4.20;;;;;;;7.82;100.00;101127.16;687675;28;1338;-44
2022/06/02 00:18:06;;;;;;;6.20;4.13;;;;;;;7.81;100.00;101141.03;688962;28;1179;-46
2022/06/02 00:18:45;;;;;;;5.70;4.03;;;;;;;7.83;100.00;101141.91;689466;28;1143;-43
2022/06/02 00:19:17;;;;;;;5.40;4.03;;;;;;;7.83;100.00;101139.28;689007;28;1191;-44
2022/06/02 00:19:47;;;;;;;6.43;4.28;;;;;;;7.84;100.00;101141.06;687838;28;4560;-43
2022/06/02 00:20:16;;;;;;;5.88;4.13;;;;;;;7.75;100.00;101138.31;688737;28;3681;-44
2022/06/02 00:20:55;;;;;;;6.43;4.40;;;;;;;7.75;100.00;101140.06;686134;28;1368;-43
2022/06/02 00:21:21;;;;;;;7.22;4.30;;;;;;;7.75;100.00;101140.91;688749;28;1373;-45
2022/06/02 00:21:49;;;;;;;5.88;4.32;;;;;;;7.76;100.00;101141.81;686981;28;1262;-45
2022/06/02 00:22:41;;;;;;;6.18;4.25;;;;;;;7.78;100.00;101134.88;686318;28;1506;-43
2022/06/02 00:23:10;;;;;;;7.13;4.00;;;;;;;7.81;100.00;101141.03;683513;28;5153;-43
2022/06/02 00:23:43;;;;;;;5.78;3.92;;;;;;;7.80;100.00;101139.25;688688;28;1275;-43
2022/06/02 00:24:27;;;;;;;6.35;4.15;;;;;;;7.78;100.00;101135.78;688017;28;1381;-43
2022/06/02 00:25:26;;;;;;;6.20;4.20;;;;;;;7.77;100.00;101140.97;689952;28;1246;-44
2022/06/02 00:25:58;;;;;;;5.57;4.20;;;;;;;7.80;100.00;101139.25;688793;28;4888;-43
2022/06/02 00:26:39;;;;;;;5.63;4.13;;;;;;;7.81;100.00;101138.41;688575;28;1535;-45
2022/06/02 00:27:04;;;;;;;6.78;3.92;;;;;;;7.84;100.00;101141.06;690937;28;1277;-43
2022/06/02 00:27:50;;;;;;;4.90;4.00;;;;;;;7.82;100.00;101137.56;690325;28;1326;-44
2022/06/02 00:28:22;;;;;;;5.43;4.40;;;;;;;7.76;100.00;101137.47;690615;28;1648;-43
2022/06/02 00:28:58;;;;;;;5.95;4.45;;;;;;;7.73;100.00;101137.44;687593;28;4446;-43
2022/06/02 00:29:48;;;;;;;5.60;4.10;;;;;;;7.72;100.00;101140.88;687098;28;1603;-43
2022/06/02 00:30:33;;;;;;;6.15;4.30;;;;;;;7.65;100.00;101139.03;686049;28;1199;-43
2022/06/02 00:30:59;;;;;;;6.47;4.13;;;;;;;7.65;100.00;101136.44;685654;28;1227;-44
2022/06/02 00:31:25;;;;;;;5.35;4.20;;;;;;;7.69;100.00;101140.84;686740;28;1386;-44
2022/06/02 00:32:08;;;;;;;5.88;4.00;;;;;;;7.70;100.00;101142.59;688451;28;4924;-44
2022/06/02 00:32:45;;;;;;;5.93;4.20;;;;;;;7.67;100.00;101133.00;689793;28;1242;-43
2022/06/02 00:33:14;;;;;;;6.07;4.20;;;;;;;7.69;100.00;101142.59;692161;28;1866;-47
2022/06/02 00:33:53;;;;;;;7.72;4.65;;;;;;;7.66;100.00;101138.19;692578;28;1174;-43
2022/06/02 00:34:25;;;;;;;6.50;4.35;;;;;;;7.67;100.00;101138.22;693113;28;1282;-43
2022/06/02 00:35:10;;;;;;;6.05;4.28;;;;;;;7.68;100.00;101136.47;690763;28;4378;-46
2022/06/02 00:35:42;;;;;;;6.47;4.50;;;;;;;7.71;100.00;101140.84;688199;28;1227;-43
2022/06/02 00:36:15;;;;;;;6.18;4.25;;;;;;;7.73;100.00;101145.25;686989;28;1452;-44
2022/06/02 00:36:55;;;;;;;5.28;4.32;;;;;;;7.74;100.00;101133.97;689169;28;1952;-44
2022/06/02 00:37:16;;;;;;;5.80;4.30;;;;;;;7.78;100.00;101134.88;689208;28;1412;-43
2022/06/02 00:37:51;;;;;;;7.00;4.45;;;;;;;7.76;100.00;101131.41;687757;28;4295;-44
2022/06/02 00:38:34;;;;;;;5.78;4.25;;;;;;;7.74;100.00;101141.78;688451;28;1294;-42
2022/06/02 00:38:58;;;;;;;5.82;4.15;;;;;;;7.71;100.00;101144.31;688293;28;1298;-44
2022/06/02 00:39:19;;;;;;;5.97;4.50;;;;;;;7.68;100.00;101139.09;689670;28;2015;-44
2022/06/02 00:39:40;;;;;;;5.63;4.40;;;;;;;7.60;100.00;101136.38;688725;28;1366;-43
2022/06/02 00:40:03;;;;;;;5.63;4.55;;;;;;;7.55;100.00;101139.78;686935;28;1515;-43
2022/06/02 00:40:25;;;;;;;5.72;4.70;;;;;;;7.49;100.00;101143.13;690151;28;1420;-43
2022/06/02 00:40:46;;;;;;;5.88;4.40;;;;;;;7.50;100.00;101137.97;687999;28;4261;-44
2022/06/02 00:41:24;;;;;;;6.57;4.00;;;;;;;7.53;100.00;101139.72;689247;28;1599;-45
2022/06/02 00:41:54;;;;;;;5.90;4.30;;;;;;;7.60;100.00;101143.28;689780;28;1425;-44
2022/06/02 00:42:23;;;;;;;6.43;4.43;;;;;;;7.64;100.00;101137.28;688559;28;1436;-43
2022/06/02 00:43:13;;;;;;;6.90;4.53;;;;;;;7.62;100.00;101139.00;688583;28;1479;-45
2022/06/02 00:44:07;;;;;;;5.75;4.40;;;;;;;7.62;100.00;101144.22;687610;28;4446;-45
2022/06/02 00:44:51;;;;;;;6.55;4.43;;;;;;;7.62;100.00;101144.22;687776;28;1523;-42
2022/06/02 00:45:15;;;;;;;6.82;4.10;;;;;;;7.61;100.00;101142.44;677326;28;1354;-43
2022/06/02 00:45:41;;;;;;;6.25;4.30;;;;;;;7.62;100.00;101144.22;687756;28;1481;-45
2022/06/02 00:46:13;;;;;;;5.18;4.00;;;;;;;7.61;100.00;101147.66;690590;28;1623;-44
2022/06/02 00:46:33;;;;;;;5.35;4.10;;;;;;;7.57;100.00;101141.50;688882;28;4439;-43
2022/06/02 00:46:59;;;;;;;5.50;4.10;;;;;;;7.59;100.00;101147.63;689172;28;1397;-43
2022/06/02 00:47:31;;;;;;;5.20;4.10;;;;;;;7.60;100.00;101151.09;688435;28;1426;-44
2022/06/02 00:47:55;;;;;;;5.78;4.20;;;;;;;7.59;100.00;101149.38;684776;28;2158;-44
2022/06/02 00:48:40;;;;;;;6.63;4.28;;;;;;;7.56;100.00;101142.38;683517;28;1442;-43
2022/06/02 00:49:14;;;;;;;6.45;4.20;;;;;;;7.49;100.00;101149.22;683757;28;1403;-44
2022/06/02 00:50:10;;;;;;;6.25;4.35;;;;;;;7.37;100.00;101148.16;688214;28;4465;-44
2022/06/02 00:50:48;;;;;;;6.07;4.60;;;;;;;7.35;100.00;101142.91;684016;28;1294;-43
2022/06/02 00:51:14;;;;;;;7.40;4.60;;;;;;;7.30;100.00;101149.78;684769;28;1759;-43
2022/06/02 00:51:41;;;;;;;9.52;5.00;;;;;;;7.29;100.00;101146.28;681835;28;1346;-43
2022/06/02 00:52:13;;;;;;;5.82;4.47;;;;;;;7.36;100.00;101144.66;681606;28;1438;-43
2022/06/02 00:52:58;;;;;;;5.43;4.05;;;;;;;7.33;100.00;101147.22;679072;28;4402;-44
2022/06/02 00:53:36;;;;;;;5.55;4.15;;;;;;;7.32;100.00;101148.06;683199;28;1279;-44
2022/06/02 00:57:55;;;;;;;6.28;4.35;;;;;;;7.39;100.00;101149.91;689468;28;1524;-43
2022/06/02 00:58:34;;;;;;;5.97;4.40;;;;;;;7.36;100.00;101149.00;689024;28;1267;-43
2022/06/02 00:59:08;;;;;;;6.60;4.78;;;;;;;7.43;100.00;101154.31;688644;28;5565;-43
2022/06/02 01:00:07;;;;;;;6.72;4.40;;;;;;;7.42;100.00;101156.91;690086;28;1611;-43
2022/06/02 01:00:40;;;;;;;6.10;4.43;;;;;;;7.40;100.00;101154.28;685334;28;1417;-43
2022/06/02 01:01:10;;;;;;;5.13;3.95;;;;;;;7.39;100.00;101157.72;687534;28;2141;-43
2022/06/02 01:01:34;;;;;;;5.55;4.00;;;;;;;7.37;100.00;101149.03;685676;28;4521;-44
2022/06/02 01:01:55;;;;;;;5.40;4.13;;;;;;;7.30;100.00;101154.97;683358;28;1549;-43
2022/06/02 01:02:19;;;;;;;5.93;4.20;;;;;;;7.27;100.00;101153.19;684453;28;1256;-43
2022/06/02 01:03:06;;;;;;;5.80;4.47;;;;;;;7.29;100.00;101155.81;683897;28;1406;-43
2022/06/02 01:03:37;;;;;;;6.32;4.30;;;;;;;7.30;100.00;101157.59;689573;28;1551;-44
2022/06/02 01:04:00;;;;;;;6.43;4.55;;;;;;;7.32;100.00;101164.56;689187;28;1080;-43
2022/06/02 01:04:21;;;;;;;6.38;5.03;;;;;;;7.32;100.00;101163.66;690503;28;1318;-43
2022/06/02 01:04:43;;;;;;;5.82;4.38;;;;;;;7.35;100.00;101155.91;685826;28;4616;-43
2022/06/02 01:05:04;;;;;;;5.70;4.50;;;;;;;7.40;100.00;101159.47;686181;28;1421;-45
2022/06/02 01:05:36;;;;;;;6.40;4.57;;;;;;;7.41;100.00;101162.97;686826;28;1529;-43
2022/06/02 01:06:09;;;;;;;5.60;4.45;;;;;;;7.30;100.00;101158.44;686572;28;1275;-42
2022/06/02 01:06:44;;;;;;;6.80;4.80;;;;;;;7.30;100.00;101168.84;686936;28;1239;-43
2022/06/02 01:07:34;;;;;;;6.03;4.72;;;;;;;7.28;100.00;101161.88;689507;28;981;-43
2022/06/02 01:08:09;;;;;;;6.18;4.88;;;;;;;7.27;100.00;101160.09;688967;28;5058;-43
2022/06/02 01:09:03;;;;;;;7.72;4.90;;;;;;;7.28;100.00;101159.25;690559;28;1322;-43
2022/06/02 01:09:52;;;;;;;7.95;5.07;;;;;;;7.25;100.00;101160.09;689929;28;1441;-43
2022/06/02 01:10:30;;;;;;;6.25;4.75;;;;;;;7.23;100.00;101164.41;689908;28;1364;-44
2022/06/02 01:11:18;;;;;;;6.75;4.75;;;;;;;7.23;100.00;101160.94;689225;28;5553;-43
2022/06/02 01:12:13;;;;;;;6.95;4.93;;;;;;;7.24;100.00;101160.97;688746;28;1464;-43
2022/06/02 01:12:48;;;;;;;6.80;4.97;;;;;;;7.24;100.00;101162.66;688373;28;1432;-44
2022/06/02 01:13:27;;;;;;;6.57;5.13;;;;;;;7.08;100.00;101167.59;689008;28;1770;-43
2022/06/02 01:14:26;;;;;;;8.40;5.70;;;;;;;6.88;100.00;101174.16;689028;28;4885;-43
2022/06/02 01:15:04;;;;;;;6.43;5.28;;;;;;;6.87;100.00;101167.22;690236;28;1377;-43
2022/06/02 01:15:34;;;;;;;6.20;5.15;;;;;;;6.79;100.00;101173.16;690349;28;1633;-44
2022/06/02 01:16:21;;;;;;;7.25;5.38;;;;;;;6.75;100.00;101173.06;690596;28;1313;-44
2022/06/02 01:17:08;;;;;;;6.30;5.03;;;;;;;6.77;100.00;101177.44;688312;28;4416;-44
2022/06/02 01:17:58;;;;;;;7.65;5.50;;;;;;;6.76;100.00;101172.22;690829;28;1639;-43
2022/06/02 01:18:48;;;;;;;7.05;5.35;;;;;;;6.69;100.00;101181.63;687002;28;1571;-43
2022/06/02 01:19:11;;;;;;;7.10;5.30;;;;;;;6.73;100.00;101170.44;689374;28;1696;-43
2022/06/02 01:20:05;;;;;;;7.45;5.38;;;;;;;6.71;100.00;101172.13;687880;28;4297;-43
2022/06/02 01:20:25;;;;;;;6.07;5.00;;;;;;;6.77;100.00;101176.56;689043;28;1477;-44
2022/06/02 01:21:10;;;;;;;6.20;4.80;;;;;;;6.83;100.00;101176.69;689901;28;1492;-43
2022/06/02 01:22:11;;;;;;;6.25;4.97;;;;;;;6.84;100.00;101174.94;688856;28;1444;-44
2022/06/02 01:23:02;;;;;;;5.70;4.60;;;;;;;6.83;100.00;101176.69;685248;28;4728;-43
2022/06/02 01:23:35;;;;;;;6.85;4.60;;;;;;;6.87;100.00;101178.50;688636;28;1535;-43
2022/06/02 01:24:02;;;;;;;6.65;4.88;;;;;;;6.82;100.00;101181.00;689881;28;1337;-43
2022/06/02 01:24:48;;;;;;;6.40;4.82;;;;;;;6.83;100.00;101176.69;689327;28;1447;-43
2022/06/02 01:25:28;;;;;;;6.72;4.88;;;;;;;6.89;100.00;101175.94;688902;28;1662;-43
2022/06/02 01:26:07;;;;;;;5.90;4.65;;;;;;;6.88;100.00;101179.34;690448;28;4971;-43
2022/06/02 01:27:05;;;;;;;6.45;4.70;;;;;;;6.84;100.00;101178.44;688513;28;1638;-44
2022/06/02 01:27:35;;;;;;;6.40;4.97;;;;;;;6.95;100.00;101178.63;688268;28;1013;-44
2022/06/02 01:28:09;;;;;;;7.78;4.68;;;;;;;6.97;100.00;101177.81;690100;28;1352;-43
2022/06/02 01:29:01;;;;;;;6.53;4.80;;;;;;;7.01;100.00;101172.69;687365;28;4393;-43
2022/06/02 01:29:49;;;;;;;6.20;4.65;;;;;;;7.10;100.00;101168.53;686909;28;1211;-44
2022/06/02 01:30:33;;;;;;;5.63;4.40;;;;;;;7.05;100.00;101177.06;686475;28;1266;-43
2022/06/02 01:31:12;;;;;;;5.72;4.30;;;;;;;7.01;100.00;101177.88;686756;28;1360;-42
2022/06/02 01:31:54;;;;;;;7.00;5.00;;;;;;;6.92;100.00;101182.06;686203;28;4263;-42
2022/06/02 01:32:18;;;;;;;6.20;4.95;;;;;;;6.92;100.00;101183.78;690147;28;1950;-44
2022/06/02 01:33:03;;;;;;;6.70;4.85;;;;;;;6.95;100.00;101181.22;689359;28;1790;-44
2022/06/02 01:33:44;;;;;;;6.45;4.70;;;;;;;6.96;100.00;101178.69;688711;28;1249;-43
2022/06/02 01:34:49;;;;;;;6.57;4.93;;;;;;;6.99;100.00;101183.03;688741;28;1055;-43
2022/06/02 01:35:20;;;;;;;6.25;4.85;;;;;;;7.03;100.00;101179.63;683426;28;4845;-45
2022/06/02 01:35:50;;;;;;;5.93;4.75;;;;;;;6.97;100.00;101177.81;684606;28;1263;-43
2022/06/02 01:36:28;;;;;;;6.15;4.80;;;;;;;6.92;100.00;101181.16;687592;28;1287;-43
2022/06/02 01:36:55;;;;;;;6.63;4.78;;;;;;;6.92;100.00;101187.25;690035;28;1266;-43
2022/06/02 01:37:21;;;;;;;6.72;5.05;;;;;;;6.88;100.00;101181.97;691024;28;1563;-43
2022/06/02 01:38:09;;;;;;;6.90;5.10;;;;;;;6.89;100.00;101194.13;689002;28;5300;-44
2022/06/02 01:38:44;;;;;;;9.75;5.90;;;;;;;6.87;100.00;101190.59;688273;28;1235;-44
2022/06/02 01:39:08;;;;;;;7.57;5.10;;;;;;;6.87;100.00;101182.81;686875;28;1264;-43
2022/06/02 01:39:47;;;;;;;7.60;5.35;;;;;;;6.79;100.00;101178.34;687876;28;1263;-43
2022/06/02 01:40:32;;;;;;;6.72;5.03;;;;;;;6.79;100.00;101188.72;689484;28;1198;-43
2022/06/02 01:41:23;;;;;;;8.32;5.30;;;;;;;6.73;100.00;101185.13;689837;28;6690;-43
2022/06/02 01:42:08;;;;;;;6.78;5.18;;;;;;;6.73;100.00;101188.63;691559;28;1294;-45
2022/06/02 01:42:32;;;;;;;6.95;4.80;;;;;;;6.76;100.00;101185.22;691650;28;4387;-43
2022/06/02 01:43:22;;;;;;;7.15;5.25;;;;;;;6.80;100.00;101185.28;688383;28;1234;-43
2022/06/02 01:43:58;;;;;;;7.00;5.40;;;;;;;6.85;100.00;101184.50;685042;28;4321;-45
2022/06/02 01:44:24;;;;;;;6.78;5.18;;;;;;;6.86;100.00;101184.53;689779;28;1228;-43
2022/06/02 01:44:58;;;;;;;7.72;5.32;;;;;;;6.88;100.00;101180.25;688416;28;1811;-44
2022/06/02 01:45:42;;;;;;;6.35;5.03;;;;;;;6.86;100.00;101184.53;688357;28;1224;-43
2022/06/02 01:46:38;;;;;;;6.18;5.10;;;;;;;6.89;100.00;101181.97;685707;28;1239;-43
2022/06/02 01:47:42;;;;;;;8.43;5.22;;;;;;;6.90;100.00;101188.09;680384;28;5408;-44
2022/06/02 01:48:20;;;;;;;6.63;5.03;;;;;;;6.90;100.00;101186.34;678365;28;1600;-43
2022/06/02 01:49:06;;;;;;;7.18;5.28;;;;;;;6.85;100.00;101174.97;678737;28;2047;-43
2022/06/02 01:49:54;;;;;;;6.65;5.15;;;;;;;6.82;100.00;101186.19;683229;28;4391;-43
2022/06/02 01:50:14;;;;;;;8.30;5.40;;;;;;;6.79;100.00;101180.94;691038;28;1608;-42
2022/06/02 01:50:50;;;;;;;6.80;5.50;;;;;;;6.77;100.00;101187.84;691007;28;1560;-43
2022/06/02 01:51:43;;;;;;;7.47;5.32;;;;;;;6.73;100.00;101180.84;689116;28;1483;-42
2022/06/02 01:52:16;;;;;;;8.27;5.43;;;;;;;6.72;100.00;101179.06;688373;28;1633;-44
2022/06/02 01:52:42;;;;;;;6.57;4.88;;;;;;;6.73;100.00;101179.94;692274;28;4354;-44
2022/06/02 01:53:12;;;;;;;6.47;5.00;;;;;;;6.75;100.00;101184.31;691215;28;1401;-43
2022/06/02 01:54:05;;;;;;;7.13;4.88;;;;;;;6.75;100.00;101184.31;691045;28;1278;-43
2022/06/02 01:54:52;;;;;;;6.75;5.13;;;;;;;6.68;100.00;101177.25;681746;28;1289;-43
2022/06/02 01:55:42;;;;;;;6.85;5.05;;;;;;;6.73;100.00;101178.25;681573;28;1474;-46
2022/06/02 01:56:28;;;;;;;6.95;5.00;;;;;;;6.75;100.00;101175.66;686949;28;5011;-43
2022/06/02 01:57:19;;;;;;;7.20;5.10;;;;;;;6.71;100.00;101177.31;690515;28;1284;-43
2022/06/02 01:57:51;;;;;;;7.28;5.07;;;;;;;6.66;100.00;101176.38;692144;28;1540;-44
2022/06/02 01:58:17;;;;;;;8.00;5.18;;;;;;;6.64;100.00;101178.06;692485;28;1437;-44
2022/06/02 01:58:56;;;;;;;7.13;5.00;;;;;;;6.59;100.00;101177.06;688891;28;4398;-43
2022/06/02 01:59:58;;;;;;;6.90;5.38;;;;;;;6.54;100.00;101177.00;689401;28;1445;-44
2022/06/02 02:00:26;;;;;;;7.15;5.50;;;;;;;6.53;100.00;101184.75;688253;28;1406;-45
2022/06/02 02:00:58;;;;;;;7.13;5.38;;;;;;;6.52;100.00;101183.00;688678;28;1250;-43
2022/06/02 02:01:35;;;;;;;7.13;5.28;;;;;;;6.47;100.00;101181.19;687750;28;1377;-44
2022/06/02 02:02:21;;;;;;;7.18;5.22;;;;;;;6.49;100.00;101183.81;688413;28;4688;-43
2022/06/02 02:03:15;;;;;;;6.97;5.32;;;;;;;6.54;100.00;101183.94;685772;28;1453;-44
2022/06/02 02:03:57;;;;;;;7.15;5.30;;;;;;;6.56;100.00;101182.22;686901;28;842;-43
2022/06/02 02:04:17;;;;;;;7.40;5.05;;;;;;;6.63;100.00;101178.88;687090;28;1528;-45
2022/06/02 02:04:44;;;;;;;8.02;5.15;;;;;;;6.67;100.00;101185.91;686163;28;4451;-42
2022/06/02 02:05:15;;;;;;;6.03;5.00;;;;;;;6.69;100.00;101183.31;689639;28;1359;-43
2022/06/02 02:05:38;;;;;;;6.65;5.13;;;;;;;6.65;100.00;101183.28;686909;28;1444;-42
2022/06/02 02:05:58;;;;;;;6.82;5.50;;;;;;;6.59;100.00;101175.38;686018;28;1247;-43
2022/06/02 02:07:00;;;;;;;7.40;5.27;;;;;;;6.59;100.00;101185.75;684573;28;1433;-43
2022/06/02 02:07:42;;;;;;;7.32;5.07;;;;;;;6.54;100.00;101177.00;684552;28;1453;-43
2022/06/02 02:08:22;;;;;;;6.55;5.32;;;;;;;6.52;100.00;101180.41;689638;28;4879;-43
2022/06/02 02:09:01;;;;;;;7.03;5.25;;;;;;;6.52;100.00;101172.59;689655;28;1572;-44
2022/06/02 02:09:34;;;;;;;6.70;5.30;;;;;;;6.47;100.00;101172.53;689420;28;1595;-43
2022/06/02 02:10:01;;;;;;;6.53;4.80;;;;;;;6.43;100.00;101175.91;690146;28;968;-44
2022/06/02 02:10:45;;;;;;;6.75;5.20;;;;;;;6.51;100.00;101181.25;690001;28;1596;-43
2022/06/02 02:11:42;;;;;;;6.38;4.80;;;;;;;6.52;100.00;101176.09;688999;28;4728;-44
2022/06/02 02:12:09;;;;;;;6.55;5.30;;;;;;;6.47;100.00;101177.72;687970;28;1366;-44
2022/06/02 02:13:11;;;;;;;7.45;5.15;;;;;;;6.43;100.00;101175.91;688433;28;1226;-43
2022/06/02 02:13:58;;;;;;;7.10;5.25;;;;;;;6.45;100.00;101177.69;685454;28;4894;-42
2022/06/02 02:14:27;;;;;;;7.50;5.00;;;;;;;6.45;100.00;101177.69;684221;28;1627;-43
2022/06/02 02:14:57;;;;;;;8.45;5.65;;;;;;;6.45;100.00;101175.09;685934;28;2016;-43
2022/06/02 02:15:26;;;;;;;7.28;5.68;;;;;;;6.48;100.00;101174.28;686645;28;1520;-43
2022/06/02 02:16:13;;;;;;;6.60;5.20;;;;;;;6.50;100.00;101176.91;683856;28;1306;-43
2022/06/02 02:16:48;;;;;;;7.47;5.35;;;;;;;6.41;100.00;101181.06;684997;28;4375;-43
2022/06/02 02:17:34;;;;;;;6.93;5.43;;;;;;;6.37;100.00;101179.25;687865;28;1547;-43
2022/06/02 02:17:57;;;;;;;7.88;5.47;;;;;;;6.41;100.00;101178.47;689792;28;1202;-43
2022/06/02 02:18:18;;;;;;;6.80;5.20;;;;;;;6.42;100.00;101181.94;689135;28;1495;-43
2022/06/02 02:19:19;;;;;;;6.90;5.10;;;;;;;6.44;100.00;101181.13;688785;28;1237;-43
2022/06/02 02:20:01;;;;;;;8.40;6.20;;;;;;;6.47;100.00;101183.78;688561;28;4373;-43
2022/06/02 02:20:30;;;;;;;7.63;5.50;;;;;;;6.53;100.00;101184.75;689730;28;1682;-42
2022/06/02 02:21:08;;;;;;;7.10;5.22;;;;;;;6.51;100.00;101181.25;688546;28;1286;-45
2022/06/02 02:21:53;;;;;;;7.28;5.88;;;;;;;6.45;100.00;101185.50;688018;28;1159;-43
2022/06/02 02:22:46;;;;;;;6.60;5.60;;;;;;;6.46;100.00;101184.63;690060;28;1449;-43
2022/06/02 02:23:09;;;;;;;7.70;5.32;;;;;;;6.50;100.00;101184.72;687609;28;4865;-43
2022/06/02 02:24:07;;;;;;;6.57;5.38;;;;;;;6.46;100.00;101187.22;689499;28;1448;-43
2022/06/02 02:24:40;;;;;;;7.43;5.45;;;;;;;6.49;100.00;101189.00;688445;28;1366;-45
2022/06/02 02:25:01;;;;;;;7.30;5.75;;;;;;;6.44;100.00;101183.72;689012;28;1401;-42
2022/06/02 02:25:21;;;;;;;7.43;5.93;;;;;;;6.41;100.00;101188.88;690210;28;1400;-44
2022/06/02 02:25:52;;;;;;;7.95;6.15;;;;;;;6.41;100.00;101186.25;689725;28;4378;-43
2022/06/02 02:26:42;;;;;;;7.05;5.68;;;;;;;6.42;100.00;101190.59;689314;28;1444;-43
2022/06/02 02:27:19;;;;;;;7.82;5.22;;;;;;;6.37;100.00;101181.84;689575;28;1588;-43
2022/06/02 02:28:05;;;;;;;7.05;5.20;;;;;;;6.32;100.00;101182.59;690192;28;1036;-42
2022/06/02 02:28:56;;;;;;;7.05;5.70;;;;;;;6.27;100.00;101185.09;688623;28;1338;-42
2022/06/02 02:29:35;;;;;;;7.07;5.22;;;;;;;6.28;100.00;101186.84;687639;28;7271;-43
2022/06/02 02:30:08;;;;;;;7.35;5.55;;;;;;;6.33;100.00;101185.22;689447;28;1278;-43
2022/06/02 02:30:35;;;;;;;8.18;5.68;;;;;;;6.34;100.00;101187.00;690858;28;1405;-43
2022/06/02 02:31:20;;;;;;;7.88;5.32;;;;;;;6.35;100.00;101188.72;687587;28;6502;-42
2022/06/02 02:31:40;;;;;;;7.20;5.53;;;;;;;6.32;100.00;101188.66;687479;28;6379;-48
2022/06/02 02:32:15;;;;;;;6.90;5.63;;;;;;;6.34;100.00;101191.28;688824;28;7544;-43
2022/06/02 02:32:51;;;;;;;7.07;5.55;;;;;;;6.39;100.00;101198.31;689501;28;1409;-43
2022/06/02 02:33:11;;;;;;;8.10;5.57;;;;;;;6.43;100.00;101196.69;689452;28;7185;-44
2022/06/02 02:34:01;;;;;;;7.63;5.50;;;;;;;6.38;100.00;101195.69;690048;28;1390;-43
2022/06/02 02:34:25;;;;;;;7.50;5.85;;;;;;;6.28;100.00;101192.91;690498;28;4390;-42
2022/06/02 02:35:10;;;;;;;6.80;5.45;;;;;;;6.19;100.00;101197.03;690606;28;1274;-42
2022/06/02 02:35:54;;;;;;;8.63;6.20;;;;;;;6.11;100.00;101189.94;692947;28;1480;-43
2022/06/02 02:36:40;;;;;;;7.22;5.88;;;;;;;6.13;100.00;101198.66;690588;28;1468;-46
2022/06/02 02:37:14;;;;;;;7.65;5.68;;;;;;;6.17;100.00;101199.59;689640;28;1106;-42
2022/06/02 02:37:52;;;;;;;7.43;5.60;;;;;;;6.18;100.00;101197.88;687124;28;4289;-44
2022/06/02 02:38:48;;;;;;;6.43;5.38;;;;;;;6.16;100.00;101194.38;686762;28;1393;-45
2022/06/02 02:39:30;;;;;;;7.40;5.70;;;;;;;6.14;100.00;101197.78;684675;28;1611;-43
2022/06/02 02:40:15;;;;;;;7.72;5.68;;;;;;;6.12;100.00;101196.91;688277;28;1294;-44
2022/06/02 02:40:45;;;;;;;9.02;6.30;;;;;;;6.08;100.00;101194.22;689748;28;4266;-44
2022/06/02 02:41:12;;;;;;;9.48;5.97;;;;;;;6.06;100.00;101201.06;688296;28;1285;-43
2022/06/02 02:41:43;;;;;;;8.40;6.00;;;;;;;6.03;100.00;101198.41;689700;28;1202;-44
2022/06/02 02:42:06;;;;;;;7.10;5.93;;;;;;;6.02;100.00;101197.53;689494;28;1567;-45
2022/06/02 02:42:40;;;;;;;7.78;6.20;;;;;;;6.00;100.00;101195.75;689780;28;1099;-43
2022/06/02 02:43:14;;;;;;;8.57;6.70;;;;;;;5.98;100.00;101200.88;689575;28;1259;-43
2022/06/02 02:44:17;;;;;;;7.75;6.22;;;;;;;5.99;100.00;101200.06;689531;28;5429;-43
2022/06/02 02:44:55;;;;;;;7.85;5.90;;;;;;;6.08;100.00;101200.28;683528;28;1322;-43
2022/06/02 02:45:44;;;;;;;7.55;6.05;;;;;;;6.17;100.00;101203.91;683478;28;1325;-42
2022/06/02 02:46:13;;;;;;;7.53;5.80;;;;;;;6.12;100.00;101207.28;689936;28;1350;-43
2022/06/02 02:46:40;;;;;;;7.38;5.80;;;;;;;6.11;100.00;101202.06;687641;28;4367;-43
2022/06/02 02:47:11;;;;;;;8.02;5.90;;;;;;;6.10;100.00;101198.56;689044;28;1223;-43
2022/06/02 02:47:48;;;;;;;8.45;6.60;;;;;;;6.12;100.00;101199.50;688409;28;1475;-43
2022/06/02 02:48:23;;;;;;;8.32;5.93;;;;;;;6.08;100.00;101197.69;689168;28;7173;-43
2022/06/02 02:48:58;;;;;;;8.07;5.82;;;;;;;6.10;100.00;101198.56;689050;28;1401;-43
2022/06/02 02:49:32;;;;;;;7.85;6.30;;;;;;;6.09;100.00;101190.75;692812;28;1345;-43
2022/06/02 02:49:56;;;;;;;8.57;6.47;;;;;;;6.08;100.00;101202.88;685216;28;5205;-43
2022/06/02 02:50:24;;;;;;;8.80;6.60;;;;;;;6.05;100.00;101195.03;685943;28;1029;-43
2022/06/02 02:50:53;;;;;;;8.23;6.32;;;;;;;6.02;100.00;101194.94;685696;28;1592;-43
2022/06/02 02:51:37;;;;;;;8.45;6.15;;;;;;;5.99;100.00;101197.47;686138;28;1402;-43
2022/06/02 02:52:19;;;;;;;8.02;6.20;;;;;;;5.96;100.00;101199.97;686621;28;1225;-44
2022/06/02 02:52:54;;;;;;;9.02;5.90;;;;;;;5.97;100.00;101191.34;687766;28;4322;-45
2022/06/02 02:53:36;;;;;;;8.00;6.00;;;;;;;6.03;100.00;101190.63;689228;28;1298;-44
2022/06/02 02:54:15;;;;;;;8.18;5.68;;;;;;;6.00;100.00;101194.03;689232;28;1234;-43
2022/06/02 02:54:49;;;;;;;8.60;6.43;;;;;;;5.99;100.00;101194.00;689982;28;1364;-42
2022/06/02 02:55:23;;;;;;;7.82;5.93;;;;;;;5.93;100.00;101190.38;689878;28;1282;-43
2022/06/02 02:56:11;;;;;;;8.00;6.22;;;;;;;5.88;100.00;101197.19;688652;28;4802;-43
2022/06/02 02:56:39;;;;;;;9.27;6.20;;;;;;;5.83;100.00;101192.72;690107;28;1354;-42
2022/06/02 02:57:37;;;;;;;8.75;6.35;;;;;;;5.73;100.00;101189.94;690109;28;1282;-43
2022/06/02 02:58:17;;;;;;;8.40;6.50;;;;;;;5.49;100.00;101194.53;684276;28;1245;-43
2022/06/02 02:58:43;;;;;;;8.77;6.60;;;;;;;5.43;100.00;101195.25;682989;28;4444;-43
2022/06/02 02:59:20;;;;;;;8.90;6.70;;;;;;;5.38;100.00;101191.66;686658;28;1553;-43
2022/06/02 03:00:06;;;;;;;9.82;7.00;;;;;;;5.43;100.00;101198.72;687366;28;2053;-42
2022/06/02 03:00:41;;;;;;;10.52;6.97;;;;;;;5.56;100.00;101199.03;688674;28;1318;-43
2022/06/02 03:01:22;;;;;;;10.80;6.70;;;;;;;5.63;100.00;101190.53;687413;28;1561;-44
2022/06/02 03:01:50;;;;;;;9.32;7.07;;;;;;;5.65;100.00;101194.06;691121;28;4941;-43
2022/06/02 03:02:47;;;;;;;9.07;6.55;;;;;;;5.70;100.00;101197.63;689610;28;1388;-44